sensor_id;sensor_type;location;lat;lon;timestamp;P1;durP1;ratioP1;P2;durP2;ratioP2
43319;SDS011;28914;48.722;9.332;2023-08-08T00:04:41;7.60;;;7.00;;
43319;SDS011;28914;48.722;9.332;2023-08-08T00:10:00;4.43;;;4.07;;
43319;SDS011;28914;48.722;9.332;2023-08-08T00:15:19;2.10;;;1.87;;
43319;SDS011;28914;48.722;9.332;2023-08-08T00:20:39;1.30;;;1.10;;
43319;SDS011;28914;48.722;9.332;2023-08-08T00:25:58;1.63;;;1.27;;
43319;SDS011;28914;48.722;9.332;2023-08-08T00:31:18;2.10;;;1.27;;
43319;SDS011;28914;48.722;9.332;2023-08-08T00:36:38;1.97;;;1.20;;
43319;SDS011;28914;48.722;9.332;2023-08-08T00:41:57;2.23;;;1.13;;
43319;SDS011;28914;48.722;9.332;2023-08-08T00:47:16;1.77;;;1.17;;
43319;SDS011;28914;48.722;9.332;2023-08-08T00:52:35;1.83;;;1.60;;
43319;SDS011;28914;48.722;9.332;2023-08-08T00:57:56;2.30;;;1.30;;
43319;SDS011;28914;48.722;9.332;2023-08-08T01:03:15;1.93;;;1.37;;
43319;SDS011;28914;48.722;9.332;2023-08-08T01:08:46;1.40;;;1.10;;
43319;SDS011;28914;48.722;9.332;2023-08-08T01:14:09;3.23;;;1.60;;
43319;SDS011;28914;48.722;9.332;2023-08-08T01:19:30;2.50;;;1.33;;
43319;SDS011;28914;48.722;9.332;2023-08-08T01:24:52;2.43;;;1.50;;
43319;SDS011;28914;48.722;9.332;2023-08-08T01:30:12;3.80;;;1.50;;
43319;SDS011;28914;48.722;9.332;2023-08-08T01:35:33;1.20;;;1.00;;
43319;SDS011;28914;48.722;9.332;2023-08-08T01:40:58;1.33;;;1.10;;
43319;SDS011;28914;48.722;9.332;2023-08-08T01:46:18;2.10;;;1.10;;
43319;SDS011;28914;48.722;9.332;2023-08-08T01:51:37;2.00;;;1.50;;
43319;SDS011;28914;48.722;9.332;2023-08-08T01:56:56;3.73;;;1.43;;
43319;SDS011;28914;48.722;9.332;2023-08-08T02:02:16;1.27;;;0.97;;
43319;SDS011;28914;48.722;9.332;2023-08-08T02:07:36;1.30;;;0.93;;
43319;SDS011;28914;48.722;9.332;2023-08-08T02:12:56;1.50;;;1.00;;
43319;SDS011;28914;48.722;9.332;2023-08-08T02:18:15;1.90;;;1.20;;
43319;SDS011;28914;48.722;9.332;2023-08-08T02:23:34;1.90;;;1.20;;
43319;SDS011;28914;48.722;9.332;2023-08-08T02:28:53;1.47;;;1.20;;
43319;SDS011;28914;48.722;9.332;2023-08-08T02:34:13;1.90;;;1.10;;
43319;SDS011;28914;48.722;9.332;2023-08-08T02:39:32;2.07;;;1.87;;
43319;SDS011;28914;48.722;9.332;2023-08-08T02:44:51;1.90;;;1.53;;
43319;SDS011;28914;48.722;9.332;2023-08-08T02:50:10;1.63;;;1.30;;
43319;SDS011;28914;48.722;9.332;2023-08-08T02:55:29;1.23;;;1.03;;
43319;SDS011;28914;48.722;9.332;2023-08-08T03:00:49;1.63;;;1.40;;
43319;SDS011;28914;48.722;9.332;2023-08-08T03:06:08;1.70;;;1.10;;
43319;SDS011;28914;48.722;9.332;2023-08-08T03:11:27;3.13;;;1.27;;
43319;SDS011;28914;48.722;9.332;2023-08-08T03:16:46;2.27;;;1.37;;
43319;SDS011;28914;48.722;9.332;2023-08-08T03:22:06;3.70;;;1.53;;
43319;SDS011;28914;48.722;9.332;2023-08-08T03:27:25;2.13;;;1.27;;
43319;SDS011;28914;48.722;9.332;2023-08-08T03:32:44;1.67;;;1.40;;
43319;SDS011;28914;48.722;9.332;2023-08-08T03:38:03;1.60;;;1.10;;
43319;SDS011;28914;48.722;9.332;2023-08-08T03:43:22;1.37;;;1.10;;
43319;SDS011;28914;48.722;9.332;2023-08-08T03:48:42;1.90;;;1.63;;
43319;SDS011;28914;48.722;9.332;2023-08-08T03:54:01;2.43;;;1.40;;
43319;SDS011;28914;48.722;9.332;2023-08-08T03:59:21;1.90;;;1.30;;
43319;SDS011;28914;48.722;9.332;2023-08-08T04:04:40;1.30;;;1.00;;
43319;SDS011;28914;48.722;9.332;2023-08-08T04:10:00;1.30;;;1.17;;
43319;SDS011;28914;48.722;9.332;2023-08-08T04:15:19;2.00;;;1.30;;
43319;SDS011;28914;48.722;9.332;2023-08-08T04:20:38;2.10;;;1.50;;
43319;SDS011;28914;48.722;9.332;2023-08-08T04:25:57;1.53;;;1.30;;
43319;SDS011;28914;48.722;9.332;2023-08-08T04:31:17;2.20;;;1.47;;
43319;SDS011;28914;48.722;9.332;2023-08-08T04:36:36;1.77;;;1.20;;
43319;SDS011;28914;48.722;9.332;2023-08-08T04:41:55;2.40;;;1.73;;
43319;SDS011;28914;48.722;9.332;2023-08-08T04:47:14;1.97;;;1.40;;
43319;SDS011;28914;48.722;9.332;2023-08-08T04:52:34;1.37;;;1.00;;
43319;SDS011;28914;48.722;9.332;2023-08-08T04:57:53;3.70;;;1.40;;
43319;SDS011;28914;48.722;9.332;2023-08-08T05:03:12;2.23;;;1.50;;
43319;SDS011;28914;48.722;9.332;2023-08-08T05:08:31;2.27;;;1.50;;
43319;SDS011;28914;48.722;9.332;2023-08-08T05:13:51;2.27;;;1.20;;
43319;SDS011;28914;48.722;9.332;2023-08-08T05:19:10;1.53;;;1.20;;
43319;SDS011;28914;48.722;9.332;2023-08-08T05:24:29;2.63;;;2.10;;
43319;SDS011;28914;48.722;9.332;2023-08-08T05:29:48;1.97;;;1.20;;
43319;SDS011;28914;48.722;9.332;2023-08-08T05:35:07;3.00;;;1.70;;
43319;SDS011;28914;48.722;9.332;2023-08-08T05:40:26;3.27;;;1.80;;
43319;SDS011;28914;48.722;9.332;2023-08-08T05:45:46;2.50;;;1.90;;
43319;SDS011;28914;48.722;9.332;2023-08-08T05:51:05;1.93;;;1.40;;
43319;SDS011;28914;48.722;9.332;2023-08-08T05:56:24;5.93;;;1.73;;
43319;SDS011;28914;48.722;9.332;2023-08-08T06:01:43;2.80;;;2.07;;
43319;SDS011;28914;48.722;9.332;2023-08-08T06:07:03;2.43;;;1.60;;
43319;SDS011;28914;48.722;9.332;2023-08-08T06:12:22;2.70;;;1.50;;
43319;SDS011;28914;48.722;9.332;2023-08-08T06:17:42;2.27;;;1.53;;
43319;SDS011;28914;48.722;9.332;2023-08-08T06:23:01;1.67;;;1.10;;
43319;SDS011;28914;48.722;9.332;2023-08-08T06:28:20;1.90;;;1.17;;
43319;SDS011;28914;48.722;9.332;2023-08-08T06:33:39;2.67;;;1.20;;
43319;SDS011;28914;48.722;9.332;2023-08-08T06:38:58;1.60;;;1.07;;
43319;SDS011;28914;48.722;9.332;2023-08-08T06:44:19;1.80;;;1.50;;
43319;SDS011;28914;48.722;9.332;2023-08-08T06:49:38;3.10;;;1.30;;
43319;SDS011;28914;48.722;9.332;2023-08-08T06:54:57;1.70;;;1.30;;
43319;SDS011;28914;48.722;9.332;2023-08-08T07:00:16;1.30;;;0.80;;
43319;SDS011;28914;48.722;9.332;2023-08-08T07:05:36;1.50;;;1.40;;
43319;SDS011;28914;48.722;9.332;2023-08-08T07:10:56;1.53;;;1.20;;
43319;SDS011;28914;48.722;9.332;2023-08-08T07:16:16;1.93;;;1.17;;
43319;SDS011;28914;48.722;9.332;2023-08-08T07:21:35;2.67;;;1.20;;
43319;SDS011;28914;48.722;9.332;2023-08-08T07:26:56;1.83;;;1.43;;
43319;SDS011;28914;48.722;9.332;2023-08-08T07:32:16;2.50;;;1.20;;
43319;SDS011;28914;48.722;9.332;2023-08-08T07:37:36;1.83;;;0.97;;
43319;SDS011;28914;48.722;9.332;2023-08-08T07:42:55;1.37;;;0.97;;
43319;SDS011;28914;48.722;9.332;2023-08-08T07:48:14;1.30;;;0.90;;
43319;SDS011;28914;48.722;9.332;2023-08-08T07:53:33;1.33;;;1.03;;
43319;SDS011;28914;48.722;9.332;2023-08-08T07:58:52;1.37;;;0.80;;
43319;SDS011;28914;48.722;9.332;2023-08-08T08:04:11;1.70;;;0.80;;
43319;SDS011;28914;48.722;9.332;2023-08-08T08:09:31;3.13;;;1.40;;
43319;SDS011;28914;48.722;9.332;2023-08-08T08:14:50;1.47;;;0.90;;
43319;SDS011;28914;48.722;9.332;2023-08-08T08:20:09;3.30;;;1.10;;
43319;SDS011;28914;48.722;9.332;2023-08-08T08:25:29;1.80;;;1.20;;
43319;SDS011;28914;48.722;9.332;2023-08-08T08:30:49;1.43;;;1.07;;
43319;SDS011;28914;48.722;9.332;2023-08-08T08:36:08;1.37;;;0.93;;
43319;SDS011;28914;48.722;9.332;2023-08-08T08:41:27;1.80;;;1.23;;
43319;SDS011;28914;48.722;9.332;2023-08-08T08:46:47;2.20;;;1.00;;
43319;SDS011;28914;48.722;9.332;2023-08-08T08:52:09;1.80;;;1.20;;
43319;SDS011;28914;48.722;9.332;2023-08-08T08:57:28;1.40;;;0.90;;
43319;SDS011;28914;48.722;9.332;2023-08-08T09:02:48;2.20;;;1.23;;
43319;SDS011;28914;48.722;9.332;2023-08-08T09:08:08;1.10;;;0.90;;
43319;SDS011;28914;48.722;9.332;2023-08-08T09:13:33;1.43;;;1.03;;
43319;SDS011;28914;48.722;9.332;2023-08-08T09:18:55;1.10;;;0.80;;
43319;SDS011;28914;48.722;9.332;2023-08-08T09:24:14;2.03;;;0.90;;
43319;SDS011;28914;48.722;9.332;2023-08-08T09:29:33;2.05;;;0.90;;
43319;SDS011;28914;48.722;9.332;2023-08-08T09:34:53;1.50;;;1.30;;
43319;SDS011;28914;48.722;9.332;2023-08-08T09:40:12;1.27;;;1.00;;
43319;SDS011;28914;48.722;9.332;2023-08-08T09:45:38;1.60;;;0.93;;
43319;SDS011;28914;48.722;9.332;2023-08-08T09:51:01;1.83;;;1.07;;
43319;SDS011;28914;48.722;9.332;2023-08-08T09:56:20;1.50;;;0.90;;
43319;SDS011;28914;48.722;9.332;2023-08-08T10:01:41;1.40;;;1.07;;
43319;SDS011;28914;48.722;9.332;2023-08-08T10:07:01;1.85;;;0.90;;
43319;SDS011;28914;48.722;9.332;2023-08-08T10:12:20;1.33;;;1.10;;
43319;SDS011;28914;48.722;9.332;2023-08-08T10:17:41;2.58;;;0.80;;
43319;SDS011;28914;48.722;9.332;2023-08-08T10:23:01;1.33;;;0.90;;
43319;SDS011;28914;48.722;9.332;2023-08-08T10:28:21;1.00;;;0.80;;
43319;SDS011;28914;48.722;9.332;2023-08-08T10:33:42;1.33;;;1.08;;
43319;SDS011;28914;48.722;9.332;2023-08-08T10:39:02;1.65;;;1.00;;
43319;SDS011;28914;48.722;9.332;2023-08-08T10:44:22;1.02;;;0.70;;
43319;SDS011;28914;48.722;9.332;2023-08-08T10:49:43;1.30;;;1.00;;
43319;SDS011;28914;48.722;9.332;2023-08-08T10:55:02;1.60;;;0.90;;
43319;SDS011;28914;48.722;9.332;2023-08-08T11:00:26;1.87;;;1.57;;
43319;SDS011;28914;48.722;9.332;2023-08-08T11:05:48;1.23;;;0.73;;
43319;SDS011;28914;48.722;9.332;2023-08-08T11:11:09;1.57;;;1.03;;
43319;SDS011;28914;48.722;9.332;2023-08-08T11:16:28;1.20;;;0.80;;
43319;SDS011;28914;48.722;9.332;2023-08-08T11:21:48;1.20;;;0.80;;
43319;SDS011;28914;48.722;9.332;2023-08-08T11:27:07;1.27;;;0.90;;
43319;SDS011;28914;48.722;9.332;2023-08-08T11:32:27;2.35;;;1.13;;
43319;SDS011;28914;48.722;9.332;2023-08-08T11:37:46;1.88;;;1.10;;
43319;SDS011;28914;48.722;9.332;2023-08-08T11:43:06;1.30;;;1.00;;
43319;SDS011;28914;48.722;9.332;2023-08-08T11:48:26;1.10;;;0.87;;
43319;SDS011;28914;48.722;9.332;2023-08-08T11:53:49;1.60;;;1.00;;
43319;SDS011;28914;48.722;9.332;2023-08-08T11:59:09;1.83;;;0.83;;
43319;SDS011;28914;48.722;9.332;2023-08-08T12:04:30;1.50;;;0.70;;
43319;SDS011;28914;48.722;9.332;2023-08-08T12:09:50;2.10;;;0.97;;
43319;SDS011;28914;48.722;9.332;2023-08-08T12:15:11;1.43;;;1.13;;
43319;SDS011;28914;48.722;9.332;2023-08-08T12:20:31;1.70;;;0.83;;
43319;SDS011;28914;48.722;9.332;2023-08-08T12:25:50;1.43;;;1.10;;
43319;SDS011;28914;48.722;9.332;2023-08-08T12:31:09;1.40;;;1.03;;
43319;SDS011;28914;48.722;9.332;2023-08-08T12:36:29;1.33;;;0.80;;
43319;SDS011;28914;48.722;9.332;2023-08-08T12:41:48;1.53;;;0.90;;
43319;SDS011;28914;48.722;9.332;2023-08-08T12:47:07;1.67;;;1.03;;
43319;SDS011;28914;48.722;9.332;2023-08-08T12:52:26;1.30;;;0.90;;
43319;SDS011;28914;48.722;9.332;2023-08-08T12:57:45;1.50;;;1.00;;
43319;SDS011;28914;48.722;9.332;2023-08-08T13:03:05;1.10;;;0.90;;
43319;SDS011;28914;48.722;9.332;2023-08-08T13:08:24;1.20;;;1.00;;
43319;SDS011;28914;48.722;9.332;2023-08-08T13:13:43;1.43;;;0.93;;
43319;SDS011;28914;48.722;9.332;2023-08-08T13:19:02;1.43;;;1.27;;
43319;SDS011;28914;48.722;9.332;2023-08-08T13:24:22;1.30;;;0.90;;
43319;SDS011;28914;48.722;9.332;2023-08-08T13:29:42;1.50;;;1.17;;
43319;SDS011;28914;48.722;9.332;2023-08-08T13:35:01;1.40;;;0.80;;
43319;SDS011;28914;48.722;9.332;2023-08-08T13:40:21;1.50;;;1.03;;
43319;SDS011;28914;48.722;9.332;2023-08-08T13:45:41;1.20;;;0.90;;
43319;SDS011;28914;48.722;9.332;2023-08-08T13:51:00;1.73;;;0.90;;
43319;SDS011;28914;48.722;9.332;2023-08-08T13:56:20;2.20;;;1.10;;
43319;SDS011;28914;48.722;9.332;2023-08-08T14:01:39;1.20;;;0.90;;
43319;SDS011;28914;48.722;9.332;2023-08-08T14:06:58;1.53;;;1.00;;
43319;SDS011;28914;48.722;9.332;2023-08-08T14:12:18;1.40;;;1.03;;
43319;SDS011;28914;48.722;9.332;2023-08-08T14:17:37;6.43;;;1.10;;
43319;SDS011;28914;48.722;9.332;2023-08-08T14:22:56;1.27;;;0.97;;
43319;SDS011;28914;48.722;9.332;2023-08-08T14:28:15;1.40;;;1.07;;
43319;SDS011;28914;48.722;9.332;2023-08-08T14:33:34;2.13;;;1.40;;
43319;SDS011;28914;48.722;9.332;2023-08-08T14:38:53;1.60;;;1.30;;
43319;SDS011;28914;48.722;9.332;2023-08-08T14:44:13;1.40;;;1.10;;
43319;SDS011;28914;48.722;9.332;2023-08-08T14:49:32;2.57;;;1.17;;
43319;SDS011;28914;48.722;9.332;2023-08-08T14:54:51;1.93;;;1.27;;
43319;SDS011;28914;48.722;9.332;2023-08-08T15:00:11;1.50;;;1.20;;
43319;SDS011;28914;48.722;9.332;2023-08-08T15:05:31;1.87;;;1.30;;
43319;SDS011;28914;48.722;9.332;2023-08-08T15:10:50;1.70;;;1.20;;
43319;SDS011;28914;48.722;9.332;2023-08-08T15:16:09;1.80;;;1.20;;
43319;SDS011;28914;48.722;9.332;2023-08-08T15:21:28;1.50;;;1.07;;
43319;SDS011;28914;48.722;9.332;2023-08-08T15:26:48;1.33;;;1.00;;
43319;SDS011;28914;48.722;9.332;2023-08-08T15:32:07;5.77;;;1.20;;
43319;SDS011;28914;48.722;9.332;2023-08-08T15:37:26;1.60;;;1.00;;
43319;SDS011;28914;48.722;9.332;2023-08-08T15:42:45;1.80;;;1.10;;
43319;SDS011;28914;48.722;9.332;2023-08-08T15:48:05;1.40;;;0.93;;
43319;SDS011;28914;48.722;9.332;2023-08-08T15:53:24;2.43;;;1.37;;
43319;SDS011;28914;48.722;9.332;2023-08-08T15:58:43;1.33;;;0.77;;
43319;SDS011;28914;48.722;9.332;2023-08-08T16:04:02;1.70;;;0.90;;
43319;SDS011;28914;48.722;9.332;2023-08-08T16:09:21;1.43;;;1.00;;
43319;SDS011;28914;48.722;9.332;2023-08-08T16:14:40;1.87;;;1.17;;
43319;SDS011;28914;48.722;9.332;2023-08-08T16:19:59;1.23;;;0.90;;
43319;SDS011;28914;48.722;9.332;2023-08-08T16:25:19;1.57;;;1.43;;
43319;SDS011;28914;48.722;9.332;2023-08-08T16:30:38;1.20;;;0.90;;
43319;SDS011;28914;48.722;9.332;2023-08-08T16:35:57;3.77;;;1.10;;
43319;SDS011;28914;48.722;9.332;2023-08-08T16:41:16;6.70;;;4.67;;
43319;SDS011;28914;48.722;9.332;2023-08-08T16:46:36;17.63;;;15.67;;
43319;SDS011;28914;48.722;9.332;2023-08-08T16:51:56;10.37;;;9.37;;
43319;SDS011;28914;48.722;9.332;2023-08-08T16:57:17;14.27;;;11.73;;
43319;SDS011;28914;48.722;9.332;2023-08-08T17:02:36;4.27;;;2.90;;
43319;SDS011;28914;48.722;9.332;2023-08-08T17:07:55;2.50;;;1.47;;
43319;SDS011;28914;48.722;9.332;2023-08-08T17:13:15;3.10;;;2.80;;
43319;SDS011;28914;48.722;9.332;2023-08-08T17:18:34;2.00;;;1.40;;
43319;SDS011;28914;48.722;9.332;2023-08-08T17:23:53;1.77;;;1.17;;
43319;SDS011;28914;48.722;9.332;2023-08-08T17:29:12;2.10;;;1.33;;
43319;SDS011;28914;48.722;9.332;2023-08-08T17:34:31;2.23;;;1.37;;
43319;SDS011;28914;48.722;9.332;2023-08-08T17:39:50;1.80;;;1.00;;
43319;SDS011;28914;48.722;9.332;2023-08-08T17:45:10;1.87;;;1.37;;
43319;SDS011;28914;48.722;9.332;2023-08-08T17:50:29;1.47;;;1.10;;
43319;SDS011;28914;48.722;9.332;2023-08-08T17:55:48;2.00;;;1.20;;
43319;SDS011;28914;48.722;9.332;2023-08-08T18:01:08;1.93;;;1.30;;
43319;SDS011;28914;48.722;9.332;2023-08-08T18:06:27;1.40;;;0.90;;
43319;SDS011;28914;48.722;9.332;2023-08-08T18:11:47;2.17;;;1.27;;
43319;SDS011;28914;48.722;9.332;2023-08-08T18:17:06;1.60;;;1.00;;
43319;SDS011;28914;48.722;9.332;2023-08-08T18:22:25;2.23;;;1.10;;
43319;SDS011;28914;48.722;9.332;2023-08-08T18:27:45;2.30;;;1.50;;
43319;SDS011;28914;48.722;9.332;2023-08-08T18:33:04;2.10;;;1.63;;
43319;SDS011;28914;48.722;9.332;2023-08-08T18:38:24;1.97;;;1.27;;
43319;SDS011;28914;48.722;9.332;2023-08-08T18:43:43;2.60;;;1.60;;
43319;SDS011;28914;48.722;9.332;2023-08-08T18:49:02;2.60;;;1.50;;
43319;SDS011;28914;48.722;9.332;2023-08-08T18:54:22;2.73;;;1.57;;
43319;SDS011;28914;48.722;9.332;2023-08-08T18:59:41;2.23;;;1.30;;
43319;SDS011;28914;48.722;9.332;2023-08-08T19:05:00;1.50;;;1.30;;
43319;SDS011;28914;48.722;9.332;2023-08-08T19:10:19;3.00;;;1.80;;
43319;SDS011;28914;48.722;9.332;2023-08-08T19:15:38;3.03;;;1.37;;
43319;SDS011;28914;48.722;9.332;2023-08-08T19:20:57;1.47;;;1.33;;
43319;SDS011;28914;48.722;9.332;2023-08-08T19:26:16;2.43;;;1.30;;
43319;SDS011;28914;48.722;9.332;2023-08-08T19:31:36;1.50;;;1.10;;
43319;SDS011;28914;48.722;9.332;2023-08-08T19:36:55;1.40;;;1.00;;
43319;SDS011;28914;48.722;9.332;2023-08-08T19:42:14;3.03;;;1.73;;
43319;SDS011;28914;48.722;9.332;2023-08-08T19:47:33;1.90;;;1.60;;
43319;SDS011;28914;48.722;9.332;2023-08-08T19:52:52;1.53;;;1.30;;
43319;SDS011;28914;48.722;9.332;2023-08-08T19:58:12;2.60;;;1.53;;
43319;SDS011;28914;48.722;9.332;2023-08-08T20:03:31;1.93;;;1.30;;
43319;SDS011;28914;48.722;9.332;2023-08-08T20:08:51;2.30;;;1.33;;
43319;SDS011;28914;48.722;9.332;2023-08-08T20:14:10;2.77;;;1.60;;
43319;SDS011;28914;48.722;9.332;2023-08-08T20:19:29;2.77;;;1.70;;
43319;SDS011;28914;48.722;9.332;2023-08-08T20:24:48;2.43;;;1.50;;
43319;SDS011;28914;48.722;9.332;2023-08-08T20:30:09;3.67;;;1.60;;
43319;SDS011;28914;48.722;9.332;2023-08-08T20:35:29;2.07;;;1.50;;
43319;SDS011;28914;48.722;9.332;2023-08-08T20:40:49;1.70;;;1.20;;
43319;SDS011;28914;48.722;9.332;2023-08-08T20:46:09;2.57;;;1.60;;
43319;SDS011;28914;48.722;9.332;2023-08-08T20:51:30;2.30;;;1.23;;
43319;SDS011;28914;48.722;9.332;2023-08-08T20:56:56;3.10;;;1.43;;
43319;SDS011;28914;48.722;9.332;2023-08-08T21:02:17;3.37;;;1.37;;
43319;SDS011;28914;48.722;9.332;2023-08-08T21:07:36;2.43;;;1.40;;
43319;SDS011;28914;48.722;9.332;2023-08-08T21:12:55;4.90;;;1.70;;
43319;SDS011;28914;48.722;9.332;2023-08-08T21:18:14;1.83;;;1.33;;
43319;SDS011;28914;48.722;9.332;2023-08-08T21:23:33;3.10;;;1.40;;
43319;SDS011;28914;48.722;9.332;2023-08-08T21:28:52;2.50;;;1.20;;
43319;SDS011;28914;48.722;9.332;2023-08-08T21:34:12;1.90;;;1.50;;
43319;SDS011;28914;48.722;9.332;2023-08-08T21:39:31;2.47;;;1.83;;
43319;SDS011;28914;48.722;9.332;2023-08-08T21:44:50;2.07;;;1.33;;
43319;SDS011;28914;48.722;9.332;2023-08-08T21:50:10;1.90;;;1.60;;
43319;SDS011;28914;48.722;9.332;2023-08-08T21:55:29;2.00;;;1.60;;
43319;SDS011;28914;48.722;9.332;2023-08-08T22:00:48;3.33;;;2.00;;
43319;SDS011;28914;48.722;9.332;2023-08-08T22:06:10;2.03;;;1.37;;
43319;SDS011;28914;48.722;9.332;2023-08-08T22:11:29;1.67;;;1.30;;
43319;SDS011;28914;48.722;9.332;2023-08-08T22:16:49;2.90;;;1.40;;
43319;SDS011;28914;48.722;9.332;2023-08-08T22:22:08;1.87;;;1.40;;
43319;SDS011;28914;48.722;9.332;2023-08-08T22:27:27;2.20;;;1.43;;
43319;SDS011;28914;48.722;9.332;2023-08-08T22:32:47;2.03;;;1.13;;
43319;SDS011;28914;48.722;9.332;2023-08-08T22:38:09;1.77;;;1.10;;
43319;SDS011;28914;48.722;9.332;2023-08-08T22:43:28;1.77;;;1.20;;
43319;SDS011;28914;48.722;9.332;2023-08-08T22:48:47;1.73;;;1.20;;
43319;SDS011;28914;48.722;9.332;2023-08-08T22:54:06;1.60;;;1.07;;
43319;SDS011;28914;48.722;9.332;2023-08-08T22:59:25;2.27;;;1.00;;
43319;SDS011;28914;48.722;9.332;2023-08-08T23:04:44;2.00;;;1.03;;
43319;SDS011;28914;48.722;9.332;2023-08-08T23:10:04;1.80;;;1.40;;
43319;SDS011;28914;48.722;9.332;2023-08-08T23:15:24;1.47;;;1.20;;
43319;SDS011;28914;48.722;9.332;2023-08-08T23:20:43;1.83;;;1.60;;
43319;SDS011;28914;48.722;9.332;2023-08-08T23:26:02;1.60;;;1.50;;
43319;SDS011;28914;48.722;9.332;2023-08-08T23:31:22;1.67;;;1.43;;
43319;SDS011;28914;48.722;9.332;2023-08-08T23:36:41;1.57;;;1.30;;
43319;SDS011;28914;48.722;9.332;2023-08-08T23:42:00;2.33;;;1.40;;
43319;SDS011;28914;48.722;9.332;2023-08-08T23:47:20;2.20;;;1.60;;
43319;SDS011;28914;48.722;9.332;2023-08-08T23:52:39;1.73;;;1.40;;
43319;SDS011;28914;48.722;9.332;2023-08-08T23:57:58;1.33;;;1.20;;
